Orangeville, Ohio
Current Conditions -  °F | °C
As of 6:51 AM on Thursday 27 Nov 2014 (Local Time) from KYNG Reporting Station
Light Snow Light Snow  
Wind Chill: 26°   Ceiling: 500
Heat Index: 31°   Visibility: 4mi
Dew Point: 30°   Wind: 5mph
Humidity: 96%   Direction: 330°NNW
Pressure: 30.01"   Gusts: NA
Location:  41.34°N, 80.52°W
Report Text: KYNG 271151Z 33004KT 4SM -SN BR BKN005 OVC055 M01/M01 A3001 RMK AO2 SLP174 60001 70001 T10061011 10006 21006 53008
Loading
Personal Weather Stations






























Interactive Weather Map New forecast layout! Learn more

10-Day Weather Forecast

Advertisements
Track Severe Weather on mobile